Главная страница
METAR-TAF:

METAR-TAF

Аэропорты :

Эрланн, Норвегия

широта: 63-42N, долгота: 009-36E, высота над уровнем моря: 0 м

Текущие метеонаблюдения

Эта сводка был подготовлена 19 минут назад, в 09:20 UTC
Ветер 3 Узел переменных направлений
Температура 18°C
Влажность 88%
Давление 1015 hPa
Видимость 10 км и более
небольшая облачность на высоте 700 фута
Отдельные облака на высоте 1000 фута
Рассеянная облачность на высоте 7000 фута

METAR: ENOL 060920Z VRB03KT 9999 FEW007 SCT010 BKN070 18/16 Q1015 NOSIG

Время: 11:39 (09:39 UTC)

Прогноз

Прогноз действительный с 06-го 06 UTC до 07-го 06 UTC
Ветер 7 Узел переменных направлений
Видимость 10 км и более
небольшая облачность на высоте 1200 фута
Рассеянная облачность на высоте 2500 фута
временами
С 06-го 06 UTC до 06-го 09 UTC
Рассеянная облачность на высоте 800 фута
изменения
С 07-го 03 UTC до 07-го 06 UTC
Ветер 10 Узел от юго-восточный

TAF: ENOL 0606/0706 VRB07KT 9999 FEW012 BKN025 TEMPO 0606/0609 BKN008 BECMG 0703/0706 13010KT

Метеонаблюдения и прогнозы для более 4000 аэропортов (сводки METAR и TAF).

Имеющиеся станции представлены на карте желтыми и красными точками.

Чтобы увидеть название станции, наведите на нее мышь.

Затем щелкните, чтобы увидеть метеонаблюдения и метеопрогнозы.

Управление картой: чтобы увеличить масштаб, щелкните зеленые кнопки с черным крестиком; чтобы уменьшить масштаб, щелкните зеленую кнопку с тире; для просмотра соседних карт щелкайте зеленые стрелки.


METAR-TAF: